sensor_id;sensor_type;location;lat;lon;timestamp;P1;durP1;ratioP1;P2;durP2;ratioP2
19891;SDS011;10108;50.142;8.724;2023-08-30T00:00:18;8.00;;;4.05;;
19891;SDS011;10108;50.142;8.724;2023-08-30T00:02:46;8.35;;;4.05;;
19891;SDS011;10108;50.142;8.724;2023-08-30T00:05:13;6.68;;;3.80;;
19891;SDS011;10108;50.142;8.724;2023-08-30T00:07:40;6.78;;;4.13;;
19891;SDS011;10108;50.142;8.724;2023-08-30T00:10:09;7.88;;;4.20;;
19891;SDS011;10108;50.142;8.724;2023-08-30T00:12:36;7.10;;;4.40;;
19891;SDS011;10108;50.142;8.724;2023-08-30T00:15:02;7.32;;;4.10;;
19891;SDS011;10108;50.142;8.724;2023-08-30T00:17:28;10.35;;;4.35;;
19891;SDS011;10108;50.142;8.724;2023-08-30T00:19:54;12.60;;;4.50;;
19891;SDS011;10108;50.142;8.724;2023-08-30T00:22:21;8.82;;;4.43;;
19891;SDS011;10108;50.142;8.724;2023-08-30T00:24:47;7.28;;;4.10;;
19891;SDS011;10108;50.142;8.724;2023-08-30T00:27:13;8.52;;;4.53;;
19891;SDS011;10108;50.142;8.724;2023-08-30T00:29:39;10.73;;;4.60;;
19891;SDS011;10108;50.142;8.724;2023-08-30T00:32:06;6.93;;;4.18;;
19891;SDS011;10108;50.142;8.724;2023-08-30T00:34:32;10.68;;;4.72;;
19891;SDS011;10108;50.142;8.724;2023-08-30T00:36:59;8.60;;;4.28;;
19891;SDS011;10108;50.142;8.724;2023-08-30T00:39:25;7.63;;;4.35;;
19891;SDS011;10108;50.142;8.724;2023-08-30T00:41:51;9.70;;;4.22;;
19891;SDS011;10108;50.142;8.724;2023-08-30T00:44:17;7.68;;;4.20;;
19891;SDS011;10108;50.142;8.724;2023-08-30T00:46:43;7.63;;;4.05;;
19891;SDS011;10108;50.142;8.724;2023-08-30T00:49:10;10.98;;;4.40;;
19891;SDS011;10108;50.142;8.724;2023-08-30T00:51:36;8.30;;;4.60;;
19891;SDS011;10108;50.142;8.724;2023-08-30T00:54:02;7.05;;;4.20;;
19891;SDS011;10108;50.142;8.724;2023-08-30T00:56:29;6.65;;;3.85;;
19891;SDS011;10108;50.142;8.724;2023-08-30T00:58:56;7.38;;;4.18;;
19891;SDS011;10108;50.142;8.724;2023-08-30T01:01:22;10.73;;;4.15;;
19891;SDS011;10108;50.142;8.724;2023-08-30T01:03:48;9.15;;;4.57;;
19891;SDS011;10108;50.142;8.724;2023-08-30T01:06:14;8.27;;;4.90;;
19891;SDS011;10108;50.142;8.724;2023-08-30T01:08:44;8.35;;;4.70;;
19891;SDS011;10108;50.142;8.724;2023-08-30T01:11:30;10.38;;;4.72;;
19891;SDS011;10108;50.142;8.724;2023-08-30T01:14:09;8.15;;;4.43;;
19891;SDS011;10108;50.142;8.724;2023-08-30T01:16:40;7.35;;;4.30;;
19891;SDS011;10108;50.142;8.724;2023-08-30T01:22:05;9.88;;;4.93;;
19891;SDS011;10108;50.142;8.724;2023-08-30T01:24:58;8.10;;;4.32;;
19891;SDS011;10108;50.142;8.724;2023-08-30T01:27:34;8.70;;;4.75;;
19891;SDS011;10108;50.142;8.724;2023-08-30T01:30:03;7.55;;;4.40;;
19891;SDS011;10108;50.142;8.724;2023-08-30T01:32:33;9.57;;;4.75;;
19891;SDS011;10108;50.142;8.724;2023-08-30T01:35:00;8.50;;;5.03;;
19891;SDS011;10108;50.142;8.724;2023-08-30T01:37:28;8.55;;;4.50;;
19891;SDS011;10108;50.142;8.724;2023-08-30T01:39:56;9.82;;;4.57;;
19891;SDS011;10108;50.142;8.724;2023-08-30T01:42:24;7.47;;;4.60;;
19891;SDS011;10108;50.142;8.724;2023-08-30T01:44:52;7.50;;;4.53;;
19891;SDS011;10108;50.142;8.724;2023-08-30T01:47:26;7.65;;;4.90;;
19891;SDS011;10108;50.142;8.724;2023-08-30T01:49:54;10.27;;;4.72;;
19891;SDS011;10108;50.142;8.724;2023-08-30T01:52:23;13.68;;;5.28;;
19891;SDS011;10108;50.142;8.724;2023-08-30T01:54:53;9.25;;;4.85;;
19891;SDS011;10108;50.142;8.724;2023-08-30T01:57:19;7.40;;;4.30;;
19891;SDS011;10108;50.142;8.724;2023-08-30T01:59:45;7.85;;;4.50;;
19891;SDS011;10108;50.142;8.724;2023-08-30T02:02:11;7.38;;;4.30;;
19891;SDS011;10108;50.142;8.724;2023-08-30T02:04:38;8.23;;;4.57;;
19891;SDS011;10108;50.142;8.724;2023-08-30T02:07:13;10.27;;;4.68;;
19891;SDS011;10108;50.142;8.724;2023-08-30T02:10:01;9.73;;;4.60;;
19891;SDS011;10108;50.142;8.724;2023-08-30T02:12:35;7.63;;;4.43;;
19891;SDS011;10108;50.142;8.724;2023-08-30T02:15:07;7.85;;;4.70;;
19891;SDS011;10108;50.142;8.724;2023-08-30T02:17:34;7.45;;;4.60;;
19891;SDS011;10108;50.142;8.724;2023-08-30T02:20:02;10.13;;;4.70;;
19891;SDS011;10108;50.142;8.724;2023-08-30T02:22:30;9.05;;;4.63;;
19891;SDS011;10108;50.142;8.724;2023-08-30T02:24:56;8.85;;;4.47;;
19891;SDS011;10108;50.142;8.724;2023-08-30T02:27:23;7.53;;;4.60;;
19891;SDS011;10108;50.142;8.724;2023-08-30T02:29:49;12.13;;;4.57;;
19891;SDS011;10108;50.142;8.724;2023-08-30T02:32:15;7.78;;;4.38;;
19891;SDS011;10108;50.142;8.724;2023-08-30T02:34:51;8.30;;;4.50;;
19891;SDS011;10108;50.142;8.724;2023-08-30T02:37:20;9.75;;;4.68;;
19891;SDS011;10108;50.142;8.724;2023-08-30T02:39:46;9.05;;;4.72;;
19891;SDS011;10108;50.142;8.724;2023-08-30T02:42:12;10.60;;;4.80;;
19891;SDS011;10108;50.142;8.724;2023-08-30T02:44:38;9.95;;;4.80;;
19891;SDS011;10108;50.142;8.724;2023-08-30T02:47:04;9.80;;;4.95;;
19891;SDS011;10108;50.142;8.724;2023-08-30T02:49:32;11.35;;;5.38;;
19891;SDS011;10108;50.142;8.724;2023-08-30T02:51:58;9.20;;;5.43;;
19891;SDS011;10108;50.142;8.724;2023-08-30T02:54:24;12.93;;;5.05;;
19891;SDS011;10108;50.142;8.724;2023-08-30T02:56:50;8.85;;;5.18;;
19891;SDS011;10108;50.142;8.724;2023-08-30T02:59:17;10.52;;;4.68;;
19891;SDS011;10108;50.142;8.724;2023-08-30T03:01:44;13.50;;;5.10;;
19891;SDS011;10108;50.142;8.724;2023-08-30T03:04:12;9.90;;;4.97;;
19891;SDS011;10108;50.142;8.724;2023-08-30T03:06:38;11.25;;;5.05;;
19891;SDS011;10108;50.142;8.724;2023-08-30T03:09:04;8.90;;;4.93;;
19891;SDS011;10108;50.142;8.724;2023-08-30T03:11:34;12.05;;;5.03;;
19891;SDS011;10108;50.142;8.724;2023-08-30T03:14:00;11.27;;;5.20;;
19891;SDS011;10108;50.142;8.724;2023-08-30T03:16:26;7.20;;;4.70;;
19891;SDS011;10108;50.142;8.724;2023-08-30T03:18:54;11.27;;;5.70;;
19891;SDS011;10108;50.142;8.724;2023-08-30T03:21:21;9.82;;;5.30;;
19891;SDS011;10108;50.142;8.724;2023-08-30T03:23:47;11.98;;;5.15;;
19891;SDS011;10108;50.142;8.724;2023-08-30T03:26:14;8.20;;;4.82;;
19891;SDS011;10108;50.142;8.724;2023-08-30T03:28:42;13.00;;;5.50;;
19891;SDS011;10108;50.142;8.724;2023-08-30T03:31:15;11.15;;;5.57;;
19891;SDS011;10108;50.142;8.724;2023-08-30T03:33:46;11.35;;;5.20;;
19891;SDS011;10108;50.142;8.724;2023-08-30T03:36:15;8.38;;;4.80;;
19891;SDS011;10108;50.142;8.724;2023-08-30T03:38:42;10.00;;;5.30;;
19891;SDS011;10108;50.142;8.724;2023-08-30T03:41:12;10.30;;;5.50;;
19891;SDS011;10108;50.142;8.724;2023-08-30T03:43:39;11.77;;;5.15;;
19891;SDS011;10108;50.142;8.724;2023-08-30T03:46:06;12.20;;;5.47;;
19891;SDS011;10108;50.142;8.724;2023-08-30T03:48:32;8.02;;;4.75;;
19891;SDS011;10108;50.142;8.724;2023-08-30T03:50:58;10.25;;;4.72;;
19891;SDS011;10108;50.142;8.724;2023-08-30T03:53:26;11.20;;;5.05;;
19891;SDS011;10108;50.142;8.724;2023-08-30T03:55:52;8.48;;;5.15;;
19891;SDS011;10108;50.142;8.724;2023-08-30T03:58:18;8.35;;;5.25;;
19891;SDS011;10108;50.142;8.724;2023-08-30T04:00:45;8.82;;;4.90;;
19891;SDS011;10108;50.142;8.724;2023-08-30T04:03:12;8.68;;;5.10;;
19891;SDS011;10108;50.142;8.724;2023-08-30T04:05:39;8.80;;;5.03;;
19891;SDS011;10108;50.142;8.724;2023-08-30T04:08:06;8.93;;;5.20;;
19891;SDS011;10108;50.142;8.724;2023-08-30T04:10:36;10.30;;;5.00;;
19891;SDS011;10108;50.142;8.724;2023-08-30T04:13:03;9.85;;;5.10;;
19891;SDS011;10108;50.142;8.724;2023-08-30T04:15:34;8.73;;;5.22;;
19891;SDS011;10108;50.142;8.724;2023-08-30T04:18:01;9.80;;;5.35;;
19891;SDS011;10108;50.142;8.724;2023-08-30T04:20:28;11.00;;;5.10;;
19891;SDS011;10108;50.142;8.724;2023-08-30T04:22:54;7.90;;;4.88;;
19891;SDS011;10108;50.142;8.724;2023-08-30T04:25:22;12.52;;;5.55;;
19891;SDS011;10108;50.142;8.724;2023-08-30T04:27:48;9.88;;;5.45;;
19891;SDS011;10108;50.142;8.724;2023-08-30T04:30:15;9.05;;;5.70;;
19891;SDS011;10108;50.142;8.724;2023-08-30T04:32:42;10.50;;;4.90;;
19891;SDS011;10108;50.142;8.724;2023-08-30T04:35:08;8.75;;;5.25;;
19891;SDS011;10108;50.142;8.724;2023-08-30T04:37:35;8.82;;;5.25;;
19891;SDS011;10108;50.142;8.724;2023-08-30T04:40:01;9.07;;;4.90;;
19891;SDS011;10108;50.142;8.724;2023-08-30T04:42:29;10.88;;;5.28;;
19891;SDS011;10108;50.142;8.724;2023-08-30T04:44:55;9.95;;;5.13;;
19891;SDS011;10108;50.142;8.724;2023-08-30T04:47:21;10.48;;;5.45;;
19891;SDS011;10108;50.142;8.724;2023-08-30T04:49:51;12.27;;;5.38;;
19891;SDS011;10108;50.142;8.724;2023-08-30T04:52:17;11.32;;;5.57;;
19891;SDS011;10108;50.142;8.724;2023-08-30T04:54:44;9.90;;;5.15;;
19891;SDS011;10108;50.142;8.724;2023-08-30T04:57:12;10.77;;;5.05;;
19891;SDS011;10108;50.142;8.724;2023-08-30T04:59:42;9.82;;;5.40;;
19891;SDS011;10108;50.142;8.724;2023-08-30T05:02:10;12.60;;;5.85;;
19891;SDS011;10108;50.142;8.724;2023-08-30T05:04:42;9.63;;;5.50;;
19891;SDS011;10108;50.142;8.724;2023-08-30T05:07:09;10.07;;;5.53;;
19891;SDS011;10108;50.142;8.724;2023-08-30T05:09:35;12.00;;;5.90;;
19891;SDS011;10108;50.142;8.724;2023-08-30T05:12:01;8.52;;;5.32;;
19891;SDS011;10108;50.142;8.724;2023-08-30T05:14:29;9.85;;;5.40;;
19891;SDS011;10108;50.142;8.724;2023-08-30T05:16:55;8.15;;;5.28;;
19891;SDS011;10108;50.142;8.724;2023-08-30T05:19:21;8.07;;;4.90;;
19891;SDS011;10108;50.142;8.724;2023-08-30T05:21:48;10.32;;;5.40;;
19891;SDS011;10108;50.142;8.724;2023-08-30T05:24:20;11.00;;;5.53;;
19891;SDS011;10108;50.142;8.724;2023-08-30T05:26:47;9.95;;;5.38;;
19891;SDS011;10108;50.142;8.724;2023-08-30T05:29:15;12.60;;;5.43;;
19891;SDS011;10108;50.142;8.724;2023-08-30T05:31:41;11.40;;;5.65;;
19891;SDS011;10108;50.142;8.724;2023-08-30T05:34:26;9.27;;;5.40;;
19891;SDS011;10108;50.142;8.724;2023-08-30T05:37:22;11.93;;;5.63;;
19891;SDS011;10108;50.142;8.724;2023-08-30T05:40:02;10.57;;;4.95;;
19891;SDS011;10108;50.142;8.724;2023-08-30T05:42:29;10.20;;;5.30;;
19891;SDS011;10108;50.142;8.724;2023-08-30T05:44:55;10.75;;;5.40;;
19891;SDS011;10108;50.142;8.724;2023-08-30T05:47:22;8.63;;;5.68;;
19891;SDS011;10108;50.142;8.724;2023-08-30T05:49:48;8.30;;;5.43;;
19891;SDS011;10108;50.142;8.724;2023-08-30T05:52:14;9.57;;;5.68;;
19891;SDS011;10108;50.142;8.724;2023-08-30T05:54:42;10.60;;;6.00;;
19891;SDS011;10108;50.142;8.724;2023-08-30T05:57:09;12.30;;;5.70;;
19891;SDS011;10108;50.142;8.724;2023-08-30T05:59:36;11.27;;;6.10;;
19891;SDS011;10108;50.142;8.724;2023-08-30T06:02:02;18.15;;;6.45;;
19891;SDS011;10108;50.142;8.724;2023-08-30T06:04:29;12.02;;;6.53;;
19891;SDS011;10108;50.142;8.724;2023-08-30T06:06:56;10.95;;;6.30;;
19891;SDS011;10108;50.142;8.724;2023-08-30T06:09:22;11.13;;;5.90;;
19891;SDS011;10108;50.142;8.724;2023-08-30T06:11:48;10.10;;;6.10;;
19891;SDS011;10108;50.142;8.724;2023-08-30T06:14:14;10.52;;;6.03;;
19891;SDS011;10108;50.142;8.724;2023-08-30T06:16:40;9.90;;;5.90;;
19891;SDS011;10108;50.142;8.724;2023-08-30T06:19:12;11.85;;;6.28;;
19891;SDS011;10108;50.142;8.724;2023-08-30T06:21:38;13.68;;;6.22;;
19891;SDS011;10108;50.142;8.724;2023-08-30T06:24:05;11.00;;;6.70;;
19891;SDS011;10108;50.142;8.724;2023-08-30T06:26:31;13.75;;;6.18;;
19891;SDS011;10108;50.142;8.724;2023-08-30T06:28:57;10.98;;;6.43;;
19891;SDS011;10108;50.142;8.724;2023-08-30T06:31:23;12.95;;;6.65;;
19891;SDS011;10108;50.142;8.724;2023-08-30T06:33:49;11.32;;;6.45;;
19891;SDS011;10108;50.142;8.724;2023-08-30T06:36:16;10.20;;;6.30;;
19891;SDS011;10108;50.142;8.724;2023-08-30T06:38:43;12.32;;;6.55;;
19891;SDS011;10108;50.142;8.724;2023-08-30T06:41:09;10.38;;;6.55;;
19891;SDS011;10108;50.142;8.724;2023-08-30T06:43:35;12.90;;;5.93;;
19891;SDS011;10108;50.142;8.724;2023-08-30T06:46:02;11.63;;;6.50;;
19891;SDS011;10108;50.142;8.724;2023-08-30T06:48:29;20.05;;;7.32;;
19891;SDS011;10108;50.142;8.724;2023-08-30T06:50:58;10.98;;;6.70;;
19891;SDS011;10108;50.142;8.724;2023-08-30T06:53:27;14.13;;;7.00;;
19891;SDS011;10108;50.142;8.724;2023-08-30T06:55:57;14.95;;;6.80;;
19891;SDS011;10108;50.142;8.724;2023-08-30T06:58:24;13.63;;;7.30;;
19891;SDS011;10108;50.142;8.724;2023-08-30T07:00:50;12.57;;;7.35;;
19891;SDS011;10108;50.142;8.724;2023-08-30T07:03:16;13.57;;;6.97;;
19891;SDS011;10108;50.142;8.724;2023-08-30T07:05:42;15.52;;;7.97;;
19891;SDS011;10108;50.142;8.724;2023-08-30T07:08:09;16.02;;;8.38;;
19891;SDS011;10108;50.142;8.724;2023-08-30T07:10:35;11.82;;;7.35;;
19891;SDS011;10108;50.142;8.724;2023-08-30T07:13:01;15.23;;;8.52;;
19891;SDS011;10108;50.142;8.724;2023-08-30T07:15:27;13.00;;;8.40;;
19891;SDS011;10108;50.142;8.724;2023-08-30T07:17:54;14.88;;;8.50;;
19891;SDS011;10108;50.142;8.724;2023-08-30T07:20:20;14.90;;;8.15;;
19891;SDS011;10108;50.142;8.724;2023-08-30T07:22:46;16.08;;;9.05;;
19891;SDS011;10108;50.142;8.724;2023-08-30T07:25:12;13.48;;;8.10;;
19891;SDS011;10108;50.142;8.724;2023-08-30T07:27:39;13.10;;;7.57;;
19891;SDS011;10108;50.142;8.724;2023-08-30T07:30:05;13.50;;;8.63;;
19891;SDS011;10108;50.142;8.724;2023-08-30T07:32:32;12.80;;;9.18;;
19891;SDS011;10108;50.142;8.724;2023-08-30T07:34:58;20.05;;;10.07;;
19891;SDS011;10108;50.142;8.724;2023-08-30T07:37:24;16.42;;;9.93;;
19891;SDS011;10108;50.142;8.724;2023-08-30T07:39:51;15.52;;;9.95;;
19891;SDS011;10108;50.142;8.724;2023-08-30T07:42:18;18.20;;;10.45;;
19891;SDS011;10108;50.142;8.724;2023-08-30T07:44:44;18.63;;;10.43;;
19891;SDS011;10108;50.142;8.724;2023-08-30T07:47:10;18.02;;;10.30;;
19891;SDS011;10108;50.142;8.724;2023-08-30T07:49:36;16.15;;;10.80;;
19891;SDS011;10108;50.142;8.724;2023-08-30T07:52:02;16.40;;;11.02;;
19891;SDS011;10108;50.142;8.724;2023-08-30T07:54:29;13.88;;;10.25;;
19891;SDS011;10108;50.142;8.724;2023-08-30T07:56:56;17.02;;;11.80;;
19891;SDS011;10108;50.142;8.724;2023-08-30T07:59:22;17.08;;;10.88;;
19891;SDS011;10108;50.142;8.724;2023-08-30T08:01:48;16.65;;;10.00;;
19891;SDS011;10108;50.142;8.724;2023-08-30T08:04:15;17.55;;;11.07;;
19891;SDS011;10108;50.142;8.724;2023-08-30T08:06:41;14.50;;;9.98;;
19891;SDS011;10108;50.142;8.724;2023-08-30T08:09:07;16.98;;;10.27;;
19891;SDS011;10108;50.142;8.724;2023-08-30T08:11:33;17.67;;;11.07;;
19891;SDS011;10108;50.142;8.724;2023-08-30T08:13:59;16.98;;;11.77;;
19891;SDS011;10108;50.142;8.724;2023-08-30T08:16:25;17.73;;;11.80;;
19891;SDS011;10108;50.142;8.724;2023-08-30T08:18:52;18.30;;;12.65;;
19891;SDS011;10108;50.142;8.724;2023-08-30T08:21:19;19.55;;;13.27;;
19891;SDS011;10108;50.142;8.724;2023-08-30T08:23:45;20.08;;;11.70;;
19891;SDS011;10108;50.142;8.724;2023-08-30T08:26:14;14.98;;;10.80;;
19891;SDS011;10108;50.142;8.724;2023-08-30T08:28:41;18.35;;;10.77;;
19891;SDS011;10108;50.142;8.724;2023-08-30T08:31:07;14.48;;;10.55;;
19891;SDS011;10108;50.142;8.724;2023-08-30T08:33:33;15.23;;;10.13;;
19891;SDS011;10108;50.142;8.724;2023-08-30T08:35:59;15.23;;;9.35;;
19891;SDS011;10108;50.142;8.724;2023-08-30T08:38:26;15.27;;;9.60;;
19891;SDS011;10108;50.142;8.724;2023-08-30T08:40:53;14.55;;;9.90;;
19891;SDS011;10108;50.142;8.724;2023-08-30T08:43:30;14.35;;;10.00;;
19891;SDS011;10108;50.142;8.724;2023-08-30T08:46:01;13.13;;;8.88;;
19891;SDS011;10108;50.142;8.724;2023-08-30T08:48:29;18.15;;;9.82;;
19891;SDS011;10108;50.142;8.724;2023-08-30T08:50:59;12.75;;;8.98;;
19891;SDS011;10108;50.142;8.724;2023-08-30T08:53:26;13.80;;;8.98;;
19891;SDS011;10108;50.142;8.724;2023-08-30T08:55:53;15.02;;;9.20;;
19891;SDS011;10108;50.142;8.724;2023-08-30T08:58:20;13.93;;;8.55;;
19891;SDS011;10108;50.142;8.724;2023-08-30T09:00:46;15.13;;;8.43;;
19891;SDS011;10108;50.142;8.724;2023-08-30T09:03:12;13.95;;;8.52;;
19891;SDS011;10108;50.142;8.724;2023-08-30T09:05:39;15.77;;;8.32;;
19891;SDS011;10108;50.142;8.724;2023-08-30T09:08:05;12.55;;;8.40;;
19891;SDS011;10108;50.142;8.724;2023-08-30T09:10:32;12.80;;;8.63;;
19891;SDS011;10108;50.142;8.724;2023-08-30T09:12:59;16.48;;;8.73;;
19891;SDS011;10108;50.142;8.724;2023-08-30T09:15:31;13.73;;;8.18;;
19891;SDS011;10108;50.142;8.724;2023-08-30T09:17:58;13.80;;;8.40;;
19891;SDS011;10108;50.142;8.724;2023-08-30T09:20:24;13.32;;;8.20;;
19891;SDS011;10108;50.142;8.724;2023-08-30T09:22:50;14.65;;;8.43;;
19891;SDS011;10108;50.142;8.724;2023-08-30T09:25:26;12.27;;;8.43;;
19891;SDS011;10108;50.142;8.724;2023-08-30T09:27:59;12.23;;;7.53;;
19891;SDS011;10108;50.142;8.724;2023-08-30T09:30:25;13.60;;;8.35;;
19891;SDS011;10108;50.142;8.724;2023-08-30T09:32:52;14.57;;;7.55;;
19891;SDS011;10108;50.142;8.724;2023-08-30T09:35:18;15.43;;;8.27;;
19891;SDS011;10108;50.142;8.724;2023-08-30T09:37:44;12.02;;;8.15;;
19891;SDS011;10108;50.142;8.724;2023-08-30T09:40:11;12.13;;;7.88;;
19891;SDS011;10108;50.142;8.724;2023-08-30T09:42:40;14.50;;;8.25;;
19891;SDS011;10108;50.142;8.724;2023-08-30T09:45:19;13.82;;;7.80;;
19891;SDS011;10108;50.142;8.724;2023-08-30T09:47:48;11.55;;;7.60;;
19891;SDS011;10108;50.142;8.724;2023-08-30T09:50:17;11.48;;;7.90;;
19891;SDS011;10108;50.142;8.724;2023-08-30T09:52:44;11.73;;;7.10;;
19891;SDS011;10108;50.142;8.724;2023-08-30T09:55:12;12.05;;;7.50;;
19891;SDS011;10108;50.142;8.724;2023-08-30T09:57:41;12.23;;;7.25;;
19891;SDS011;10108;50.142;8.724;2023-08-30T10:00:09;11.10;;;7.00;;
19891;SDS011;10108;50.142;8.724;2023-08-30T10:02:38;9.60;;;6.35;;
19891;SDS011;10108;50.142;8.724;2023-08-30T10:05:08;10.98;;;6.53;;
19891;SDS011;10108;50.142;8.724;2023-08-30T10:07:38;11.85;;;6.78;;
19891;SDS011;10108;50.142;8.724;2023-08-30T10:10:05;10.38;;;6.38;;
19891;SDS011;10108;50.142;8.724;2023-08-30T10:12:31;12.68;;;7.20;;
19891;SDS011;10108;50.142;8.724;2023-08-30T10:14:58;11.35;;;6.55;;
19891;SDS011;10108;50.142;8.724;2023-08-30T10:17:28;12.63;;;6.80;;
19891;SDS011;10108;50.142;8.724;2023-08-30T10:19:58;10.40;;;6.68;;
19891;SDS011;10108;50.142;8.724;2023-08-30T10:22:26;11.90;;;6.40;;
19891;SDS011;10108;50.142;8.724;2023-08-30T10:24:53;10.70;;;7.00;;
19891;SDS011;10108;50.142;8.724;2023-08-30T10:27:23;9.98;;;6.28;;
19891;SDS011;10108;50.142;8.724;2023-08-30T10:29:51;11.38;;;6.85;;
19891;SDS011;10108;50.142;8.724;2023-08-30T10:32:19;12.68;;;6.80;;
19891;SDS011;10108;50.142;8.724;2023-08-30T10:34:47;9.40;;;6.03;;
19891;SDS011;10108;50.142;8.724;2023-08-30T10:37:15;9.77;;;6.35;;
19891;SDS011;10108;50.142;8.724;2023-08-30T10:39:42;10.55;;;6.63;;
19891;SDS011;10108;50.142;8.724;2023-08-30T10:42:12;12.20;;;6.97;;
19891;SDS011;10108;50.142;8.724;2023-08-30T10:44:52;11.82;;;6.55;;
19891;SDS011;10108;50.142;8.724;2023-08-30T10:47:24;11.50;;;6.65;;
19891;SDS011;10108;50.142;8.724;2023-08-30T10:49:55;9.52;;;6.05;;
19891;SDS011;10108;50.142;8.724;2023-08-30T10:52:22;9.73;;;5.53;;
19891;SDS011;10108;50.142;8.724;2023-08-30T10:54:49;8.30;;;5.10;;
19891;SDS011;10108;50.142;8.724;2023-08-30T10:57:18;9.65;;;5.75;;
19891;SDS011;10108;50.142;8.724;2023-08-30T11:02:33;9.32;;;5.40;;
19891;SDS011;10108;50.142;8.724;2023-08-30T11:05:00;10.40;;;6.10;;
19891;SDS011;10108;50.142;8.724;2023-08-30T11:07:27;10.50;;;5.55;;
19891;SDS011;10108;50.142;8.724;2023-08-30T11:09:54;10.60;;;6.05;;
19891;SDS011;10108;50.142;8.724;2023-08-30T11:12:20;10.75;;;5.85;;
19891;SDS011;10108;50.142;8.724;2023-08-30T11:14:54;9.23;;;5.13;;
19891;SDS011;10108;50.142;8.724;2023-08-30T11:17:20;9.15;;;5.15;;
19891;SDS011;10108;50.142;8.724;2023-08-30T11:19:48;11.70;;;5.03;;
19891;SDS011;10108;50.142;8.724;2023-08-30T11:22:16;9.70;;;5.72;;
19891;SDS011;10108;50.142;8.724;2023-08-30T11:24:43;8.13;;;5.05;;
19891;SDS011;10108;50.142;8.724;2023-08-30T11:27:11;6.40;;;4.28;;
19891;SDS011;10108;50.142;8.724;2023-08-30T11:29:39;9.27;;;4.70;;
19891;SDS011;10108;50.142;8.724;2023-08-30T11:32:07;9.18;;;5.07;;
19891;SDS011;10108;50.142;8.724;2023-08-30T11:34:33;9.00;;;5.13;;
19891;SDS011;10108;50.142;8.724;2023-08-30T11:36:59;7.03;;;4.78;;
19891;SDS011;10108;50.142;8.724;2023-08-30T11:39:27;8.98;;;5.40;;
19891;SDS011;10108;50.142;8.724;2023-08-30T11:41:54;10.75;;;5.07;;
19891;SDS011;10108;50.142;8.724;2023-08-30T11:44:22;12.38;;;6.10;;
19891;SDS011;10108;50.142;8.724;2023-08-30T11:46:57;10.43;;;5.65;;
19891;SDS011;10108;50.142;8.724;2023-08-30T11:49:29;9.40;;;4.90;;
19891;SDS011;10108;50.142;8.724;2023-08-30T11:51:55;9.02;;;5.10;;
19891;SDS011;10108;50.142;8.724;2023-08-30T11:54:23;9.27;;;5.18;;
19891;SDS011;10108;50.142;8.724;2023-08-30T11:56:50;7.20;;;4.38;;
19891;SDS011;10108;50.142;8.724;2023-08-30T11:59:19;7.85;;;4.60;;
19891;SDS011;10108;50.142;8.724;2023-08-30T12:01:48;9.43;;;4.88;;
19891;SDS011;10108;50.142;8.724;2023-08-30T12:04:15;6.68;;;4.50;;
19891;SDS011;10108;50.142;8.724;2023-08-30T12:06:41;7.10;;;4.28;;
19891;SDS011;10108;50.142;8.724;2023-08-30T12:09:11;7.65;;;4.30;;
19891;SDS011;10108;50.142;8.724;2023-08-30T12:11:38;9.48;;;4.30;;
19891;SDS011;10108;50.142;8.724;2023-08-30T12:14:04;7.65;;;4.35;;
19891;SDS011;10108;50.142;8.724;2023-08-30T12:16:30;10.27;;;4.75;;
19891;SDS011;10108;50.142;8.724;2023-08-30T12:19:06;7.90;;;4.43;;
19891;SDS011;10108;50.142;8.724;2023-08-30T12:21:38;5.50;;;3.80;;
19891;SDS011;10108;50.142;8.724;2023-08-30T12:24:06;6.82;;;4.22;;
19891;SDS011;10108;50.142;8.724;2023-08-30T12:26:32;5.82;;;3.97;;
19891;SDS011;10108;50.142;8.724;2023-08-30T12:28:58;8.07;;;4.43;;
19891;SDS011;10108;50.142;8.724;2023-08-30T12:31:25;8.20;;;4.50;;
19891;SDS011;10108;50.142;8.724;2023-08-30T12:33:53;8.30;;;4.82;;
19891;SDS011;10108;50.142;8.724;2023-08-30T12:36:20;8.25;;;4.75;;
19891;SDS011;10108;50.142;8.724;2023-08-30T12:38:46;8.93;;;4.90;;
19891;SDS011;10108;50.142;8.724;2023-08-30T12:41:12;9.38;;;5.43;;
19891;SDS011;10108;50.142;8.724;2023-08-30T12:43:38;8.25;;;4.68;;
19891;SDS011;10108;50.142;8.724;2023-08-30T12:46:04;10.15;;;5.18;;
19891;SDS011;10108;50.142;8.724;2023-08-30T12:48:31;9.35;;;5.28;;
19891;SDS011;10108;50.142;8.724;2023-08-30T12:50:57;12.10;;;6.05;;
19891;SDS011;10108;50.142;8.724;2023-08-30T12:53:23;8.75;;;4.85;;
19891;SDS011;10108;50.142;8.724;2023-08-30T12:55:49;8.90;;;5.05;;
19891;SDS011;10108;50.142;8.724;2023-08-30T12:58:15;9.20;;;5.20;;
19891;SDS011;10108;50.142;8.724;2023-08-30T13:00:41;10.73;;;5.78;;
19891;SDS011;10108;50.142;8.724;2023-08-30T13:03:07;10.27;;;5.50;;
19891;SDS011;10108;50.142;8.724;2023-08-30T13:05:33;9.52;;;5.28;;
19891;SDS011;10108;50.142;8.724;2023-08-30T13:07:59;8.65;;;4.82;;
19891;SDS011;10108;50.142;8.724;2023-08-30T13:10:26;8.40;;;4.80;;
19891;SDS011;10108;50.142;8.724;2023-08-30T13:12:52;5.72;;;3.92;;
19891;SDS011;10108;50.142;8.724;2023-08-30T13:15:18;8.73;;;4.07;;
19891;SDS011;10108;50.142;8.724;2023-08-30T13:17:44;7.30;;;4.13;;
19891;SDS011;10108;50.142;8.724;2023-08-30T13:20:10;6.93;;;4.25;;
19891;SDS011;10108;50.142;8.724;2023-08-30T13:22:36;7.80;;;4.50;;
19891;SDS011;10108;50.142;8.724;2023-08-30T13:25:02;7.55;;;4.07;;
19891;SDS011;10108;50.142;8.724;2023-08-30T13:27:29;10.15;;;4.38;;
19891;SDS011;10108;50.142;8.724;2023-08-30T13:29:55;7.93;;;4.47;;
19891;SDS011;10108;50.142;8.724;2023-08-30T13:32:21;7.10;;;4.28;;
19891;SDS011;10108;50.142;8.724;2023-08-30T13:34:47;9.25;;;4.50;;
19891;SDS011;10108;50.142;8.724;2023-08-30T13:37:15;10.20;;;5.22;;
19891;SDS011;10108;50.142;8.724;2023-08-30T13:39:41;8.73;;;4.97;;
19891;SDS011;10108;50.142;8.724;2023-08-30T13:42:07;7.55;;;4.80;;
19891;SDS011;10108;50.142;8.724;2023-08-30T13:44:34;8.98;;;4.18;;
19891;SDS011;10108;50.142;8.724;2023-08-30T13:47:03;7.38;;;4.25;;
19891;SDS011;10108;50.142;8.724;2023-08-30T13:49:30;9.88;;;4.93;;
19891;SDS011;10108;50.142;8.724;2023-08-30T13:51:56;6.65;;;4.25;;
19891;SDS011;10108;50.142;8.724;2023-08-30T13:54:23;7.55;;;4.55;;
19891;SDS011;10108;50.142;8.724;2023-08-30T13:56:50;8.98;;;5.20;;
19891;SDS011;10108;50.142;8.724;2023-08-30T13:59:16;11.35;;;5.47;;
19891;SDS011;10108;50.142;8.724;2023-08-30T14:01:42;7.90;;;4.82;;
19891;SDS011;10108;50.142;8.724;2023-08-30T14:04:08;7.60;;;4.50;;
19891;SDS011;10108;50.142;8.724;2023-08-30T14:06:35;12.07;;;5.38;;
19891;SDS011;10108;50.142;8.724;2023-08-30T14:09:01;10.32;;;5.40;;
19891;SDS011;10108;50.142;8.724;2023-08-30T14:11:27;10.50;;;5.50;;
19891;SDS011;10108;50.142;8.724;2023-08-30T14:13:53;11.43;;;5.63;;
19891;SDS011;10108;50.142;8.724;2023-08-30T14:16:19;7.18;;;4.78;;
19891;SDS011;10108;50.142;8.724;2023-08-30T14:18:45;9.55;;;5.65;;
19891;SDS011;10108;50.142;8.724;2023-08-30T14:21:11;6.95;;;4.57;;
19891;SDS011;10108;50.142;8.724;2023-08-30T14:23:38;11.07;;;5.55;;
19891;SDS011;10108;50.142;8.724;2023-08-30T14:26:05;12.60;;;5.47;;
19891;SDS011;10108;50.142;8.724;2023-08-30T14:28:39;9.07;;;5.38;;
19891;SDS011;10108;50.142;8.724;2023-08-30T14:31:08;11.10;;;5.40;;
19891;SDS011;10108;50.142;8.724;2023-08-30T14:33:35;9.23;;;5.78;;
19891;SDS011;10108;50.142;8.724;2023-08-30T14:36:03;7.65;;;4.97;;
19891;SDS011;10108;50.142;8.724;2023-08-30T14:38:34;11.05;;;5.88;;
19891;SDS011;10108;50.142;8.724;2023-08-30T14:41:02;10.32;;;5.97;;
19891;SDS011;10108;50.142;8.724;2023-08-30T14:43:28;10.80;;;6.13;;
19891;SDS011;10108;50.142;8.724;2023-08-30T14:46:04;10.85;;;5.68;;
19891;SDS011;10108;50.142;8.724;2023-08-30T14:48:34;10.10;;;5.43;;